Time;durP1;ratioP1;P1;durP2;ratioP2;P2;SDS_P1;SDS_P2;PMS_P1;PMS_P2;Temp;Humidity;BMP_temperature;BMP_pressure;BME280_temperature;BME280_humidity;BME280_pressure;Samples;Min_cycle;Max_cycle;Signal;HPM_P1;HPM_P2
2022/03/08 00:00:25;;;;;;;7.07;3.58;;;1.80;98.30;;;;;;5008883;28;20026;-80
2022/03/08 00:02:51;;;;;;;6.72;3.85;;;1.80;98.30;;;;;;5011032;28;20038;-79
2022/03/08 00:05:18;;;;;;;5.90;3.17;;;1.80;98.30;;;;;;5010249;28;20539;-79
2022/03/08 00:07:45;;;;;;;9.40;3.67;;;1.80;98.20;;;;;;5008136;28;20135;-79
2022/03/08 00:10:11;;;;;;;7.05;3.63;;;1.80;98.00;;;;;;5005500;28;20176;-80
2022/03/08 00:12:37;;;;;;;7.78;4.22;;;1.80;97.90;;;;;;5010400;28;20132;-79
2022/03/08 00:15:07;;;;;;;9.80;3.58;;;1.80;97.80;;;;;;4999968;28;20113;-79
2022/03/08 00:17:33;;;;;;;8.10;4.30;;;1.80;97.60;;;;;;5009336;28;20462;-79
2022/03/08 00:19:58;;;;;;;7.97;3.95;;;1.80;97.40;;;;;;5010188;28;20036;-80
2022/03/08 00:22:24;;;;;;;4.80;3.08;;;1.80;97.30;;;;;;5003178;28;20441;-79
2022/03/08 00:24:49;;;;;;;8.27;3.70;;;1.80;97.30;;;;;;5002928;28;20029;-80
2022/03/08 00:27:15;;;;;;;7.15;3.50;;;1.70;97.30;;;;;;5012072;28;20042;-79
2022/03/08 00:29:40;;;;;;;5.75;3.38;;;1.70;97.20;;;;;;5013451;28;20026;-79
2022/03/08 00:32:07;;;;;;;5.88;3.28;;;1.70;97.20;;;;;;5014828;28;20030;-79
2022/03/08 00:34:32;;;;;;;6.32;2.97;;;1.70;97.20;;;;;;5011040;28;20034;-79
2022/03/08 00:36:58;;;;;;;6.18;2.85;;;1.70;97.10;;;;;;5001936;28;20401;-79
2022/03/08 00:39:23;;;;;;;6.50;3.60;;;1.70;97.00;;;;;;5013307;28;20058;-79
2022/03/08 00:41:49;;;;;;;8.32;3.55;;;1.70;96.80;;;;;;5012004;28;20042;-79
2022/03/08 00:44:14;;;;;;;9.32;3.67;;;1.70;96.70;;;;;;5005006;28;20030;-79
2022/03/08 00:46:40;;;;;;;6.20;3.28;;;1.70;96.60;;;;;;5001857;28;20034;-79
2022/03/08 00:49:06;;;;;;;5.22;3.22;;;1.60;96.60;;;;;;5013742;28;20036;-78
2022/03/08 00:51:31;;;;;;;6.68;3.53;;;1.60;96.70;;;;;;5011189;28;20033;-79
2022/03/08 00:53:57;;;;;;;8.73;3.28;;;1.60;96.70;;;;;;5013926;28;20088;-79
2022/03/08 00:56:22;;;;;;;8.13;3.63;;;1.50;96.70;;;;;;5006816;28;20491;-80
2022/03/08 00:58:48;;;;;;;5.97;3.00;;;1.50;96.80;;;;;;5009665;28;20088;-79
2022/03/08 01:01:14;;;;;;;5.97;3.35;;;1.40;96.90;;;;;;5011890;28;20040;-79
2022/03/08 01:03:39;;;;;;;6.45;2.85;;;1.40;97.10;;;;;;5005434;28;20030;-80
2022/03/08 01:06:05;;;;;;;7.22;2.97;;;1.40;97.00;;;;;;5003292;28;20033;-80
2022/03/08 01:08:30;;;;;;;6.78;3.10;;;1.30;97.00;;;;;;5002827;28;20105;-79
2022/03/08 01:10:56;;;;;;;8.25;2.63;;;1.30;97.00;;;;;;5008452;28;20092;-79
2022/03/08 01:13:22;;;;;;;6.20;3.42;;;1.40;97.00;;;;;;5008231;28;20029;-79
2022/03/08 01:15:48;;;;;;;6.18;3.30;;;1.40;97.10;;;;;;5013646;28;20489;-79
2022/03/08 01:18:14;;;;;;;6.07;2.92;;;1.40;96.80;;;;;;5012074;28;20037;-79
2022/03/08 01:20:39;;;;;;;6.32;3.22;;;1.40;96.70;;;;;;5012368;28;20025;-79
2022/03/08 01:23:05;;;;;;;5.68;3.42;;;1.40;96.60;;;;;;5011741;28;20413;-79
2022/03/08 01:25:30;;;;;;;5.13;2.70;;;1.40;96.50;;;;;;5010420;28;20409;-79
2022/03/08 01:27:56;;;;;;;6.38;3.30;;;1.40;96.50;;;;;;5014997;28;20033;-79
2022/03/08 01:30:24;;;;;;;4.18;2.17;;;1.30;96.60;;;;;;5012413;28;20095;-79
2022/03/08 01:32:49;;;;;;;5.03;2.92;;;1.30;96.50;;;;;;5013149;28;20030;-79
2022/03/08 01:35:17;;;;;;;4.95;2.20;;;1.30;96.50;;;;;;4997470;28;20092;-79
2022/03/08 01:37:43;;;;;;;7.07;3.05;;;1.30;96.60;;;;;;5009207;28;20061;-80
2022/03/08 01:40:14;;;;;;;6.35;2.88;;;1.20;96.70;;;;;;5010628;28;20038;-79
2022/03/08 01:42:41;;;;;;;5.30;2.92;;;1.20;96.70;;;;;;5002194;28;20440;-79
2022/03/08 01:45:07;;;;;;;6.13;2.90;;;1.10;96.80;;;;;;5013728;28;20030;-79
2022/03/08 01:47:33;;;;;;;6.13;3.05;;;1.10;96.70;;;;;;5011749;28;20038;-79
2022/03/08 01:49:58;;;;;;;4.35;3.00;;;1.10;96.70;;;;;;5013115;28;20096;-79
2022/03/08 01:52:25;;;;;;;5.07;2.83;;;1.10;96.70;;;;;;4998232;28;20038;-79
2022/03/08 01:54:51;;;;;;;8.00;2.67;;;1.10;96.70;;;;;;5004269;28;20512;-79
2022/03/08 01:57:19;;;;;;;7.10;2.97;;;1.00;96.60;;;;;;5007215;28;20026;-79
2022/03/08 01:59:45;;;;;;;5.70;2.83;;;1.00;96.60;;;;;;5009182;28;20389;-79
2022/03/08 02:02:12;;;;;;;5.07;2.90;;;0.90;96.80;;;;;;5003809;28;20057;-79
2022/03/08 02:04:38;;;;;;;5.78;3.00;;;0.90;96.80;;;;;;5002933;28;20461;-79
2022/03/08 02:07:04;;;;;;;5.05;3.03;;;0.90;96.90;;;;;;5010438;28;20042;-79
2022/03/08 02:09:30;;;;;;;6.13;2.85;;;0.90;96.80;;;;;;5013117;28;20128;-79
2022/03/08 02:11:55;;;;;;;6.68;3.33;;;0.90;96.80;;;;;;5013441;28;20080;-79
2022/03/08 02:14:21;;;;;;;6.03;2.92;;;0.80;96.80;;;;;;5007928;28;20092;-79
2022/03/08 02:16:47;;;;;;;5.93;3.10;;;0.80;96.80;;;;;;4999756;28;20478;-79
2022/03/08 02:19:14;;;;;;;6.50;3.05;;;0.80;96.80;;;;;;5011523;28;20105;-79
2022/03/08 02:21:40;;;;;;;6.22;3.15;;;0.70;96.90;;;;;;5009937;28;20045;-79
2022/03/08 02:24:07;;;;;;;4.75;2.38;;;0.60;97.10;;;;;;5002218;28;20117;-79
2022/03/08 02:26:32;;;;;;;5.43;2.70;;;0.60;97.30;;;;;;5008227;28;20084;-79
2022/03/08 02:29:03;;;;;;;5.25;2.47;;;0.70;97.20;;;;;;5002064;28;20034;-79
2022/03/08 02:31:30;;;;;;;5.68;2.85;;;0.70;97.20;;;;;;5010332;28;20030;-79
2022/03/08 02:33:56;;;;;;;5.97;2.53;;;0.80;97.10;;;;;;5006096;28;20513;-79
2022/03/08 02:36:22;;;;;;;5.30;2.47;;;0.80;97.10;;;;;;5008813;28;20517;-79
2022/03/08 02:38:48;;;;;;;6.13;2.28;;;0.80;97.00;;;;;;5001926;28;20029;-79
2022/03/08 02:41:14;;;;;;;4.93;2.50;;;0.80;96.90;;;;;;5011662;28;20087;-79
2022/03/08 02:43:39;;;;;;;4.35;2.35;;;0.80;96.90;;;;;;5004084;28;20010;-79
2022/03/08 02:46:05;;;;;;;4.78;2.40;;;0.80;96.90;;;;;;5010373;28;20029;-79
2022/03/08 02:48:31;;;;;;;7.53;3.03;;;0.90;96.80;;;;;;5011999;28;20034;-79
2022/03/08 02:50:57;;;;;;;6.30;2.80;;;0.90;96.70;;;;;;5010809;28;20034;-79
2022/03/08 02:53:23;;;;;;;7.68;2.75;;;1.00;96.60;;;;;;5009066;28;20026;-79
2022/03/08 02:55:49;;;;;;;8.50;3.28;;;1.20;96.50;;;;;;5003424;28;20025;-79
2022/03/08 02:58:15;;;;;;;6.93;2.72;;;1.30;96.10;;;;;;5011005;28;20044;-78
2022/03/08 03:00:41;;;;;;;7.57;2.60;;;1.30;96.00;;;;;;5011707;28;20461;-80
2022/03/08 03:03:07;;;;;;;5.80;3.00;;;1.30;95.80;;;;;;5008318;28;20394;-79
2022/03/08 03:05:33;;;;;;;5.60;2.60;;;1.40;95.60;;;;;;5012519;28;20076;-79
2022/03/08 03:07:59;;;;;;;5.53;2.72;;;1.50;95.50;;;;;;5012359;28;20511;-79
2022/03/08 03:10:25;;;;;;;4.45;2.53;;;1.50;95.30;;;;;;5011640;28;20046;-79
2022/03/08 03:12:52;;;;;;;6.45;2.45;;;1.50;95.20;;;;;;5003306;28;20120;-79
2022/03/08 03:15:18;;;;;;;4.28;2.33;;;1.60;94.80;;;;;;5002751;28;20033;-79
2022/03/08 03:17:45;;;;;;;4.88;2.85;;;1.70;94.60;;;;;;5010802;28;20501;-79
2022/03/08 03:20:13;;;;;;;8.77;2.50;;;1.70;94.40;;;;;;5011151;28;20033;-79
2022/03/08 03:22:38;;;;;;;5.88;3.03;;;1.80;94.50;;;;;;4996746;28;20040;-79
2022/03/08 03:25:05;;;;;;;4.78;3.13;;;1.80;94.00;;;;;;5003948;28;20389;-79
2022/03/08 03:27:31;;;;;;;5.75;2.85;;;1.80;94.00;;;;;;5010966;28;20041;-79
2022/03/08 03:29:56;;;;;;;6.35;3.00;;;1.80;93.90;;;;;;5011331;28;20391;-79
2022/03/08 03:32:25;;;;;;;6.85;2.90;;;1.80;93.70;;;;;;5005311;28;20062;-79
2022/03/08 03:34:51;;;;;;;4.65;2.60;;;1.90;93.50;;;;;;5008725;28;20104;-79
2022/03/08 03:37:17;;;;;;;5.53;2.85;;;1.90;93.40;;;;;;5010220;28;20034;-79
2022/03/08 03:39:43;;;;;;;5.28;2.65;;;1.90;93.30;;;;;;5009355;28;20025;-79
2022/03/08 03:42:08;;;;;;;5.72;2.53;;;1.90;93.20;;;;;;5008766;28;20109;-79
2022/03/08 03:44:34;;;;;;;5.35;3.03;;;1.80;93.10;;;;;;5001665;28;20106;-79
2022/03/08 03:47:00;;;;;;;7.32;3.15;;;1.90;92.70;;;;;;5009674;28;20433;-79
2022/03/08 03:49:25;;;;;;;6.45;3.42;;;1.90;92.50;;;;;;5010364;28;20462;-79
2022/03/08 03:51:51;;;;;;;5.00;2.83;;;1.90;92.40;;;;;;5008993;28;20022;-79
2022/03/08 03:54:18;;;;;;;6.13;3.05;;;1.80;92.50;;;;;;5010910;28;20083;-79
2022/03/08 03:56:44;;;;;;;6.35;3.00;;;1.80;92.60;;;;;;5010616;28;20049;-79
2022/03/08 03:59:09;;;;;;;5.78;2.92;;;1.70;92.70;;;;;;5009984;28;20026;-79
2022/03/08 04:01:35;;;;;;;4.85;3.17;;;1.60;92.90;;;;;;5009803;28;20109;-80
2022/03/08 04:04:00;;;;;;;5.63;3.22;;;1.70;92.80;;;;;;4998863;28;20026;-79
2022/03/08 04:06:26;;;;;;;8.50;3.15;;;1.60;92.80;;;;;;5012648;28;20045;-79
2022/03/08 04:08:52;;;;;;;4.30;2.40;;;1.60;92.90;;;;;;5014982;28;20037;-79
2022/03/08 04:11:17;;;;;;;6.32;3.20;;;1.60;93.30;;;;;;5013603;28;20053;-79
2022/03/08 04:13:43;;;;;;;7.47;4.38;;;1.40;93.10;;;;;;5010218;28;20351;-79
2022/03/08 04:16:09;;;;;;;6.70;3.38;;;1.30;93.30;;;;;;5011564;28;20038;-79
2022/03/08 04:18:35;;;;;;;5.57;3.05;;;1.30;93.50;;;;;;5015443;28;20053;-79
2022/03/08 04:21:01;;;;;;;5.68;2.92;;;1.30;93.60;;;;;;5013615;28;20030;-79
2022/03/08 04:23:26;;;;;;;4.57;2.30;;;1.30;93.60;;;;;;5008666;28;20364;-79
2022/03/08 04:25:52;;;;;;;5.75;3.03;;;1.30;93.70;;;;;;5007011;28;20375;-79
2022/03/08 04:28:17;;;;;;;5.28;3.20;;;1.40;93.70;;;;;;5013692;28;20049;-79
2022/03/08 04:30:43;;;;;;;5.13;3.22;;;1.40;93.60;;;;;;5006618;28;20030;-78
2022/03/08 04:33:09;;;;;;;6.90;3.40;;;1.50;93.50;;;;;;5013019;28;20026;-79
2022/03/08 04:35:35;;;;;;;6.05;3.10;;;1.50;93.40;;;;;;5013197;28;20026;-79
2022/03/08 04:38:00;;;;;;;6.18;2.72;;;1.50;93.30;;;;;;5013142;28;20018;-79
2022/03/08 04:40:26;;;;;;;6.70;3.38;;;1.50;93.30;;;;;;5013566;28;20057;-79
2022/03/08 04:42:52;;;;;;;7.20;3.17;;;1.40;93.30;;;;;;5008987;28;20061;-79
2022/03/08 04:45:18;;;;;;;5.63;3.30;;;1.40;93.40;;;;;;5007722;28;20052;-79
2022/03/08 04:47:43;;;;;;;7.97;3.42;;;1.30;93.60;;;;;;5005679;28;20038;-79
2022/03/08 04:50:14;;;;;;;8.25;3.20;;;1.30;93.70;;;;;;5010414;28;20029;-79
2022/03/08 04:52:40;;;;;;;6.13;3.17;;;1.30;93.70;;;;;;5003822;28;20033;-78
2022/03/08 04:55:07;;;;;;;6.20;3.20;;;1.30;93.60;;;;;;5004685;28;20050;-79
2022/03/08 04:57:35;;;;;;;3.97;2.47;;;1.20;93.70;;;;;;5014484;28;20474;-79
2022/03/08 05:00:04;;;;;;;6.28;3.15;;;1.20;93.80;;;;;;5013939;28;20041;-80
2022/03/08 05:02:29;;;;;;;7.30;3.40;;;1.20;94.00;;;;;;5014659;28;20034;-79
2022/03/08 05:04:55;;;;;;;6.38;3.17;;;1.10;94.10;;;;;;5002604;28;20040;-80
2022/03/08 05:07:20;;;;;;;6.35;3.45;;;1.10;94.20;;;;;;4997755;28;20145;-79
2022/03/08 05:09:46;;;;;;;6.32;2.78;;;1.10;94.30;;;;;;5011845;28;20030;-79
2022/03/08 05:12:11;;;;;;;6.25;3.22;;;1.00;94.30;;;;;;5011643;28;20406;-79
2022/03/08 05:14:37;;;;;;;5.85;2.90;;;1.00;94.50;;;;;;5013082;28;20057;-79
2022/03/08 05:17:03;;;;;;;6.63;3.60;;;1.00;94.60;;;;;;5000091;28;20030;-79
2022/03/08 05:19:29;;;;;;;6.20;3.08;;;1.00;94.80;;;;;;5013852;28;20387;-79
2022/03/08 05:21:54;;;;;;;5.95;2.95;;;0.90;94.70;;;;;;5006678;28;20121;-79
2022/03/08 05:24:20;;;;;;;6.75;3.67;;;0.90;94.80;;;;;;5012776;28;20472;-79
2022/03/08 05:26:46;;;;;;;8.38;3.03;;;0.80;94.90;;;;;;5009935;28;20042;-79
2022/03/08 05:29:11;;;;;;;7.55;3.97;;;0.90;95.10;;;;;;5012819;28;20033;-79
2022/03/08 05:31:37;;;;;;;6.15;3.10;;;0.80;95.10;;;;;;5003106;28;20030;-79
2022/03/08 05:34:03;;;;;;;5.95;3.40;;;0.80;95.30;;;;;;5005272;28;20105;-79
2022/03/08 05:36:28;;;;;;;5.50;3.47;;;0.80;95.40;;;;;;4999956;28;20073;-79
2022/03/08 05:38:54;;;;;;;6.57;3.72;;;0.80;95.40;;;;;;5006115;28;20047;-79
2022/03/08 05:41:20;;;;;;;6.93;3.83;;;0.70;95.40;;;;;;5003506;28;20030;-79
2022/03/08 05:43:46;;;;;;;8.88;3.90;;;0.70;95.60;;;;;;5004514;28;20055;-79
2022/03/08 05:46:11;;;;;;;4.13;2.45;;;0.70;95.70;;;;;;5007982;28;20045;-78
2022/03/08 05:48:37;;;;;;;9.07;4.03;;;0.60;95.60;;;;;;5004454;28;20040;-78
2022/03/08 05:51:03;;;;;;;8.18;3.58;;;0.60;95.90;;;;;;5010071;28;20386;-79
2022/03/08 05:53:29;;;;;;;6.65;3.67;;;0.60;95.90;;;;;;5005936;28;20026;-78
2022/03/08 05:55:54;;;;;;;8.15;3.80;;;0.60;95.90;;;;;;5000218;28;20022;-78
2022/03/08 05:58:20;;;;;;;7.78;4.40;;;0.50;96.10;;;;;;5005206;28;20116;-80
2022/03/08 06:00:46;;;;;;;8.43;3.88;;;0.50;96.50;;;;;;5001529;28;20034;-79
2022/03/08 06:03:12;;;;;;;5.82;3.67;;;0.50;96.40;;;;;;5002312;28;20056;-80
2022/03/08 06:05:37;;;;;;;6.20;3.92;;;0.50;96.40;;;;;;5003766;28;20306;-80
2022/03/08 06:08:04;;;;;;;9.43;4.05;;;0.50;96.30;;;;;;5001061;28;20552;-80
2022/03/08 06:10:30;;;;;;;7.28;3.38;;;0.50;96.30;;;;;;4998802;28;20096;-79
2022/03/08 06:12:56;;;;;;;7.30;4.00;;;0.50;96.30;;;;;;5000635;28;20022;-79
2022/03/08 06:15:21;;;;;;;8.65;4.45;;;0.50;96.30;;;;;;4995045;28;20049;-80
2022/03/08 06:17:47;;;;;;;8.70;3.92;;;0.50;96.40;;;;;;5001321;28;20497;-79
2022/03/08 06:20:13;;;;;;;7.70;4.30;;;0.40;96.50;;;;;;5001474;28;20040;-80
2022/03/08 06:22:38;;;;;;;8.55;4.05;;;0.30;96.70;;;;;;5002690;28;20054;-81
2022/03/08 06:25:05;;;;;;;6.88;3.65;;;0.30;96.70;;;;;;4998823;28;20033;-79
2022/03/08 06:27:32;;;;;;;8.98;3.80;;;0.20;96.80;;;;;;5000028;28;20057;-79
2022/03/08 06:29:57;;;;;;;7.63;4.13;;;0.20;97.00;;;;;;5000318;28;20041;-79
2022/03/08 06:32:23;;;;;;;9.30;4.32;;;0.20;97.20;;;;;;4998143;28;20603;-80
2022/03/08 06:34:51;;;;;;;8.25;4.10;;;0.20;97.20;;;;;;5001699;28;20540;-80
2022/03/08 06:37:17;;;;;;;8.02;4.07;;;0.30;97.40;;;;;;5001432;28;20026;-80
2022/03/08 06:39:43;;;;;;;8.55;4.03;;;0.30;97.30;;;;;;5005302;28;20551;-80
2022/03/08 06:42:09;;;;;;;6.25;3.88;;;0.30;97.30;;;;;;4999876;28;20118;-80
2022/03/08 06:44:35;;;;;;;7.20;4.00;;;0.30;97.40;;;;;;5004556;28;20038;-80
2022/03/08 06:47:00;;;;;;;8.75;4.30;;;0.40;97.40;;;;;;5000126;28;20068;-79
2022/03/08 06:49:26;;;;;;;10.20;3.90;;;0.50;97.40;;;;;;5003255;28;20057;-80
2022/03/08 06:51:51;;;;;;;13.73;4.72;;;0.50;97.50;;;;;;5007113;28;20026;-80
2022/03/08 06:54:18;;;;;;;8.43;3.80;;;0.60;97.20;;;;;;5002607;28;20573;-80
2022/03/08 06:56:43;;;;;;;8.15;3.80;;;0.70;97.20;;;;;;5001821;28;20029;-79
2022/03/08 06:59:09;;;;;;;9.93;4.60;;;0.80;97.10;;;;;;5002399;28;20041;-80
2022/03/08 07:01:35;;;;;;;9.68;4.53;;;0.90;97.00;;;;;;5004320;28;20069;-80
2022/03/08 07:04:00;;;;;;;9.10;3.92;;;1.10;96.80;;;;;;5000539;28;20521;-80
2022/03/08 07:06:26;;;;;;;8.75;4.60;;;1.20;96.60;;;;;;5001865;28;20050;-81
2022/03/08 07:08:53;;;;;;;6.28;4.30;;;1.30;96.10;;;;;;5002417;28;20393;-80
2022/03/08 07:11:20;;;;;;;7.63;4.00;;;1.50;95.90;;;;;;5002807;28;20136;-80
2022/03/08 07:13:45;;;;;;;6.03;3.78;;;1.60;95.60;;;;;;5007577;28;22812;-80
2022/03/08 07:16:11;;;;;;;8.32;3.80;;;1.70;95.50;;;;;;5000717;28;20026;-80
2022/03/08 07:18:36;;;;;;;8.32;3.60;;;1.80;95.30;;;;;;5000969;28;20026;-80
2022/03/08 07:21:03;;;;;;;9.00;4.15;;;1.90;94.90;;;;;;5002460;28;20100;-81
2022/03/08 07:23:29;;;;;;;7.50;3.30;;;2.00;94.70;;;;;;5001560;28;20029;-79
2022/03/08 07:25:54;;;;;;;8.80;4.00;;;2.10;94.40;;;;;;5003756;28;20026;-80
2022/03/08 07:28:20;;;;;;;7.28;3.78;;;2.30;94.00;;;;;;5003108;28;20041;-79
2022/03/08 07:30:45;;;;;;;8.25;3.33;;;2.40;93.60;;;;;;5005102;28;20056;-81
2022/03/08 07:33:11;;;;;;;5.85;3.28;;;2.50;93.30;;;;;;5003051;28;20030;-81
2022/03/08 07:35:36;;;;;;;7.38;3.67;;;2.70;92.90;;;;;;5011590;28;20358;-81
2022/03/08 07:38:02;;;;;;;5.38;3.40;;;2.80;92.00;;;;;;5011471;28;20060;-81
2022/03/08 07:40:28;;;;;;;6.80;3.47;;;3.00;91.90;;;;;;5012350;28;20038;-81
2022/03/08 07:42:53;;;;;;;14.88;3.60;;;3.00;91.70;;;;;;5008485;28;20446;-80
2022/03/08 07:45:19;;;;;;;6.65;3.70;;;3.20;91.20;;;;;;5002237;28;20037;-81
2022/03/08 07:47:44;;;;;;;6.63;3.30;;;3.20;91.00;;;;;;5011795;28;20075;-81
2022/03/08 07:50:10;;;;;;;9.38;3.88;;;3.30;90.80;;;;;;5003978;28;20029;-81
2022/03/08 07:52:36;;;;;;;7.32;3.30;;;3.40;90.70;;;;;;5001601;28;20478;-81
2022/03/08 07:55:03;;;;;;;6.40;3.40;;;3.50;90.40;;;;;;5003706;28;20033;-81
2022/03/08 07:57:28;;;;;;;7.70;3.17;;;3.50;90.20;;;;;;5000735;28;20026;-80
2022/03/08 07:59:54;;;;;;;8.18;3.92;;;3.60;89.50;;;;;;5007417;28;20025;-81
2022/03/08 08:02:20;;;;;;;7.40;3.80;;;3.70;88.50;;;;;;5003220;28;20045;-81
2022/03/08 08:04:45;;;;;;;6.72;3.67;;;3.80;87.60;;;;;;5005818;28;20030;-80
2022/03/08 08:07:11;;;;;;;6.53;3.65;;;3.90;86.10;;;;;;5009850;28;20092;-81
2022/03/08 08:09:37;;;;;;;9.15;4.00;;;3.90;85.20;;;;;;5005279;28;20108;-80
2022/03/08 08:12:03;;;;;;;9.10;4.07;;;4.00;84.80;;;;;;5006889;28;20033;-81
2022/03/08 08:14:28;;;;;;;6.97;4.20;;;4.10;84.40;;;;;;5011101;28;20046;-81
2022/03/08 08:16:54;;;;;;;7.30;4.30;;;4.20;84.20;;;;;;5008422;28;20546;-81
2022/03/08 08:19:20;;;;;;;5.68;3.83;;;4.20;84.00;;;;;;5004515;28;20505;-82
2022/03/08 08:21:45;;;;;;;7.35;4.20;;;4.30;83.30;;;;;;5011447;28;20042;-80
2022/03/08 08:24:11;;;;;;;7.43;3.65;;;4.30;83.00;;;;;;5005960;28;20034;-81
2022/03/08 08:26:36;;;;;;;10.68;4.60;;;4.30;82.20;;;;;;4998185;28;20048;-81
2022/03/08 08:29:02;;;;;;;7.57;3.90;;;4.40;81.90;;;;;;5004762;28;20026;-82
2022/03/08 08:31:30;;;;;;;4.50;3.10;;;4.50;80.90;;;;;;5010762;28;20041;-82
2022/03/08 08:33:55;;;;;;;16.83;4.57;;;4.50;81.00;;;;;;5006684;28;20040;-82
2022/03/08 08:36:21;;;;;;;5.20;4.07;;;4.60;80.80;;;;;;5009358;28;20129;-81
2022/03/08 08:38:47;;;;;;;7.30;3.72;;;4.60;80.10;;;;;;5010000;28;20377;-80
2022/03/08 08:41:12;;;;;;;9.25;4.07;;;4.70;80.50;;;;;;5005577;28;20030;-80
2022/03/08 08:43:38;;;;;;;7.28;3.85;;;4.80;80.10;;;;;;5005243;28;20026;-80
2022/03/08 08:46:04;;;;;;;8.93;4.20;;;4.90;80.00;;;;;;4991361;28;20108;-80
2022/03/08 08:48:29;;;;;;;7.97;3.92;;;5.00;79.70;;;;;;5006200;28;20164;-80
2022/03/08 08:50:55;;;;;;;8.40;4.68;;;5.00;78.80;;;;;;5009379;28;20026;-81
2022/03/08 08:53:22;;;;;;;6.57;4.00;;;5.10;79.30;;;;;;5007784;28;20549;-80
2022/03/08 08:55:48;;;;;;;6.75;3.60;;;5.20;78.80;;;;;;5005916;28;20033;-80
2022/03/08 08:58:14;;;;;;;8.15;4.05;;;5.30;76.90;;;;;;5003649;28;20069;-80
2022/03/08 09:00:39;;;;;;;10.38;4.13;;;5.30;77.80;;;;;;5006624;28;20104;-80
2022/03/08 09:03:09;;;;;;;7.28;3.80;;;5.50;77.90;;;;;;5011287;28;20030;-80
2022/03/08 09:05:35;;;;;;;4.68;3.20;;;5.50;77.90;;;;;;5005086;28;20109;-81
2022/03/08 09:08:00;;;;;;;7.72;4.05;;;5.60;76.70;;;;;;5003739;28;20125;-80
2022/03/08 09:10:26;;;;;;;6.43;4.43;;;5.60;76.80;;;;;;5009545;28;20045;-80
2022/03/08 09:12:51;;;;;;;13.48;4.53;;;5.70;76.10;;;;;;5013822;28;20521;-80
2022/03/08 09:15:21;;;;;;;5.78;3.92;;;5.80;76.60;;;;;;5002157;28;20053;-80
2022/03/08 09:17:47;;;;;;;7.75;4.43;;;5.90;76.20;;;;;;5007273;28;20042;-81
2022/03/08 09:20:13;;;;;;;8.30;4.15;;;6.00;75.10;;;;;;5005637;28;20076;-80
2022/03/08 09:22:39;;;;;;;6.47;4.30;;;6.00;75.30;;;;;;5012343;28;20034;-79
2022/03/08 09:25:06;;;;;;;6.07;3.65;;;6.10;75.30;;;;;;5013104;28;20033;-80
2022/03/08 09:27:34;;;;;;;12.25;4.10;;;6.10;75.00;;;;;;5005792;28;20045;-79
2022/03/08 09:30:00;;;;;;;6.78;4.47;;;6.20;75.10;;;;;;5009789;28;20022;-80
2022/03/08 09:32:25;;;;;;;7.18;3.83;;;6.40;75.00;;;;;;5007037;28;20149;-80
2022/03/08 09:34:51;;;;;;;8.30;4.47;;;6.50;75.10;;;;;;5008433;28;20113;-80
2022/03/08 09:37:17;;;;;;;7.32;3.70;;;6.60;74.10;;;;;;5004003;28;20173;-80
2022/03/08 09:39:42;;;;;;;5.25;3.40;;;6.70;73.40;;;;;;5005995;28;20022;-78
2022/03/08 09:42:09;;;;;;;8.48;3.70;;;6.70;72.70;;;;;;5011714;28;20038;-79
2022/03/08 09:44:36;;;;;;;5.90;3.50;;;6.80;72.20;;;;;;5004148;28;20049;-79
2022/03/08 09:47:02;;;;;;;6.63;3.63;;;6.80;70.60;;;;;;5005572;28;20034;-79
2022/03/08 09:49:28;;;;;;;7.13;3.30;;;6.90;70.40;;;;;;5003265;28;20061;-78
2022/03/08 09:51:54;;;;;;;9.77;3.90;;;7.00;69.40;;;;;;5005414;28;20068;-79
2022/03/08 09:54:20;;;;;;;7.03;3.63;;;7.00;69.30;;;;;;5001245;28;20049;-81
2022/03/08 09:56:46;;;;;;;4.05;2.85;;;7.10;69.90;;;;;;5003517;28;21686;-79
2022/03/08 09:59:19;;;;;;;6.55;3.08;;;7.30;68.90;;;;;;5001902;28;20035;-80
2022/03/08 10:01:46;;;;;;;5.22;3.03;;;7.30;67.40;;;;;;5011554;28;20026;-80
2022/03/08 10:04:19;;;;;;;5.70;2.53;;;7.40;67.30;;;;;;5007219;28;20076;-79
2022/03/08 10:06:47;;;;;;;5.50;2.63;;;7.50;67.80;;;;;;5002561;28;20410;-80
2022/03/08 10:09:18;;;;;;;3.88;2.20;;;7.60;67.60;;;;;;5001298;28;20565;-79
2022/03/08 10:11:44;;;;;;;5.85;2.35;;;7.70;65.60;;;;;;5008765;28;20135;-79
2022/03/08 10:14:26;;;;;;;5.88;2.38;;;7.70;63.70;;;;;;5011480;28;20431;-79
2022/03/08 10:16:53;;;;;;;10.47;2.73;;;7.70;62.70;;;;;;5001539;28;20026;-79
2022/03/08 10:19:18;;;;;;;5.53;2.65;;;7.70;63.00;;;;;;5006545;28;20026;-79
2022/03/08 10:21:52;;;;;;;5.95;2.40;;;7.80;62.10;;;;;;5003433;28;20517;-79
2022/03/08 10:24:23;;;;;;;4.20;2.15;;;7.80;60.40;;;;;;5009320;28;20108;-78
2022/03/08 10:26:58;;;;;;;8.02;2.17;;;7.80;60.30;;;;;;5008161;28;20040;-78
2022/03/08 10:29:27;;;;;;;2.78;1.83;;;7.80;59.90;;;;;;5009150;28;20029;-78
2022/03/08 10:32:17;;;;;;;4.32;2.50;;;7.80;61.00;;;;;;5004274;28;20037;-79
2022/03/08 10:34:45;;;;;;;3.47;2.35;;;8.00;60.30;;;;;;5001589;28;20450;-80
2022/03/08 10:37:19;;;;;;;7.13;2.28;;;8.00;59.80;;;;;;5000882;28;20509;-80
2022/03/08 10:39:53;;;;;;;4.72;2.17;;;8.10;59.60;;;;;;5002878;28;20032;-79
2022/03/08 10:42:24;;;;;;;7.40;2.65;;;8.20;59.60;;;;;;5025134;23;20462;-79
2022/03/08 10:44:50;;;;;;;5.88;2.10;;;8.20;58.40;;;;;;5024627;28;20044;-80
2022/03/08 10:47:16;;;;;;;4.70;1.95;;;8.20;58.20;;;;;;5030975;28;20124;-79
2022/03/08 10:49:52;;;;;;;3.28;1.90;;;8.20;58.00;;;;;;5016924;28;20600;-79
2022/03/08 10:52:24;;;;;;;7.07;1.95;;;8.30;57.70;;;;;;5004612;28;20133;-79
2022/03/08 10:54:50;;;;;;;6.95;2.10;;;8.30;57.50;;;;;;4999304;28;20138;-80
2022/03/08 10:57:18;;;;;;;3.42;1.58;;;8.40;56.50;;;;;;5005717;28;20128;-81
2022/03/08 10:59:54;;;;;;;3.90;1.88;;;8.40;56.70;;;;;;5006044;28;20035;-81
2022/03/08 11:02:23;;;;;;;3.67;1.52;;;8.50;56.30;;;;;;5003363;28;20567;-78
2022/03/08 11:05:07;;;;;;;3.58;1.70;;;8.60;55.50;;;;;;5005389;28;20029;-80
2022/03/08 11:07:34;;;;;;;4.47;2.03;;;8.60;54.90;;;;;;5002845;28;20029;-78
2022/03/08 11:10:01;;;;;;;6.15;1.80;;;8.60;54.70;;;;;;5004152;28;20037;-80
2022/03/08 11:12:27;;;;;;;3.95;1.58;;;8.60;55.60;;;;;;5005027;28;20038;-80
2022/03/08 11:14:55;;;;;;;3.35;1.67;;;8.70;55.50;;;;;;5002956;28;20492;-80
2022/03/08 11:17:26;;;;;;;6.05;2.10;;;8.80;55.50;;;;;;5003556;28;20123;-80
2022/03/08 11:19:51;;;;;;;3.63;1.63;;;8.80;55.00;;;;;;5005489;28;20029;-80
2022/03/08 11:22:18;;;;;;;3.40;1.45;;;8.80;54.40;;;;;;5001371;28;20038;-81
2022/03/08 11:24:46;;;;;;;2.28;1.70;;;8.80;54.90;;;;;;5002788;28;20022;-81
2022/03/08 11:27:15;;;;;;;4.38;1.70;;;8.80;54.60;;;;;;5009333;28;20033;-81
2022/03/08 11:29:41;;;;;;;5.75;2.08;;;8.90;54.20;;;;;;5012814;28;20033;-81
2022/03/08 11:32:16;;;;;;;9.98;2.22;;;8.90;54.60;;;;;;5011853;28;20017;-80
2022/03/08 11:34:47;;;;;;;6.35;1.88;;;9.00;54.30;;;;;;4992657;28;20053;-79
2022/03/08 11:37:23;;;;;;;3.47;1.70;;;9.00;53.30;;;;;;5002268;28;20045;-80
2022/03/08 11:40:10;;;;;;;4.32;2.35;;;9.00;53.30;;;;;;5012532;28;20025;-79
2022/03/08 11:42:41;;;;;;;6.95;2.00;;;9.00;53.60;;;;;;5011712;28;20042;-79
2022/03/08 11:45:11;;;;;;;5.22;2.35;;;9.00;53.30;;;;;;5012172;28;20100;-80
2022/03/08 11:48:00;;;;;;;4.25;1.50;;;9.00;53.40;;;;;;5011606;28;20037;-80
2022/03/08 11:50:28;;;;;;;6.00;2.50;;;9.10;53.90;;;;;;5012482;28;20064;-79
2022/03/08 11:53:06;;;;;;;3.83;2.20;;;9.20;53.80;;;;;;5009375;28;20057;-80
2022/03/08 11:55:34;;;;;;;4.30;1.88;;;9.30;53.50;;;;;;5003646;28;20405;-80
2022/03/08 11:58:05;;;;;;;5.88;1.98;;;9.30;54.20;;;;;;5001940;28;20105;-81
2022/03/08 12:00:40;;;;;;;3.45;2.10;;;9.30;54.10;;;;;;5002910;28;20113;-80
2022/03/08 12:03:39;;;;;;;3.88;2.00;;;9.40;53.80;;;;;;5002439;28;20061;-80
2022/03/08 12:06:06;;;;;;;4.05;2.28;;;9.40;53.50;;;;;;5005524;28;20043;-80
2022/03/08 12:08:41;;;;;;;4.93;2.25;;;9.40;53.30;;;;;;5004637;28;20145;-80
2022/03/08 12:11:28;;;;;;;4.82;2.40;;;9.40;53.80;;;;;;5003649;28;20047;-80
2022/03/08 12:14:11;;;;;;;6.10;2.38;;;9.50;53.80;;;;;;5002879;28;20018;-80
2022/03/08 12:16:39;;;;;;;6.25;2.42;;;9.60;54.50;;;;;;5004146;28;20038;-80
2022/03/08 12:19:06;;;;;;;9.27;2.63;;;9.60;53.00;;;;;;5004895;28;20140;-80
2022/03/08 12:21:42;;;;;;;4.03;1.95;;;9.60;52.90;;;;;;5003601;28;20243;-80
2022/03/08 12:24:07;;;;;;;6.05;2.85;;;9.70;53.50;;;;;;5007526;28;20021;-80
2022/03/08 12:26:52;;;;;;;5.88;2.28;;;9.80;52.70;;;;;;5004662;28;20804;-80
2022/03/08 12:29:20;;;;;;;4.18;2.58;;;9.80;52.70;;;;;;5013721;28;20492;-80
2022/03/08 12:32:10;;;;;;;5.40;2.38;;;9.80;52.10;;;;;;5013678;28;20058;-80
2022/03/08 12:34:42;;;;;;;4.22;2.38;;;9.80;52.80;;;;;;5010497;28;20087;-79
2022/03/08 12:37:14;;;;;;;7.78;3.25;;;9.80;52.60;;;;;;5004304;28;20025;-80
2022/03/08 12:39:54;;;;;;;8.43;3.13;;;9.80;52.70;;;;;;5015007;28;20417;-78
2022/03/08 12:42:28;;;;;;;7.10;2.53;;;9.90;52.80;;;;;;5009384;28;20059;-80
2022/03/08 12:45:04;;;;;;;4.85;2.80;;;9.90;52.50;;;;;;5015049;28;20022;-80
2022/03/08 12:47:34;;;;;;;5.25;2.88;;;9.90;52.90;;;;;;5015814;28;20465;-79
2022/03/08 12:50:04;;;;;;;5.03;2.03;;;10.00;53.20;;;;;;5014675;28;20108;-79
2022/03/08 12:52:35;;;;;;;5.20;2.35;;;10.10;53.10;;;;;;5007204;28;20030;-80
2022/03/08 12:55:02;;;;;;;6.38;2.53;;;10.20;52.60;;;;;;5014389;28;20121;-78
2022/03/08 12:57:29;;;;;;;3.60;2.08;;;10.20;52.60;;;;;;5013132;28;20033;-79